createdAt,value
2023-04-04T00:00:59.412Z,96.48
2023-04-04T00:03:27.809Z,97.46
2023-04-04T00:05:56.533Z,96.57
2023-04-04T00:08:25.145Z,96.23
2023-04-04T00:10:59.721Z,96.13
2023-04-04T00:13:30.124Z,96.46
2023-04-04T00:15:58.910Z,95.88
2023-04-04T00:18:27.380Z,96.09
2023-04-04T00:20:55.927Z,95.60
2023-04-04T00:23:24.193Z,96.71
2023-04-04T00:25:53.478Z,96.55
2023-04-04T00:28:23.252Z,97.33
2023-04-04T00:30:53.476Z,97.25
2023-04-04T00:33:21.918Z,98.72
2023-04-04T00:35:51.176Z,100.00
2023-04-04T00:38:19.529Z,98.43
2023-04-04T00:40:51.539Z,97.83
2023-04-04T00:43:20.577Z,98.51
2023-04-04T00:45:49.038Z,98.13
2023-04-04T00:48:19.566Z,97.68
2023-04-04T00:50:48.020Z,98.27
2023-04-04T00:53:16.451Z,98.76
2023-04-04T00:55:44.970Z,99.58
2023-04-04T00:58:13.884Z,99.29
2023-04-04T01:00:43.147Z,98.21
2023-04-04T01:03:12.877Z,98.38
2023-04-04T01:05:43.878Z,97.82
2023-04-04T01:08:12.647Z,98.63
2023-04-04T01:10:43.666Z,97.79
2023-04-04T01:13:12.755Z,98.37
2023-04-04T01:15:41.657Z,97.47
2023-04-04T01:18:14.183Z,97.14
2023-04-04T01:20:55.639Z,96.29
2023-04-04T01:23:37.746Z,95.45
2023-04-04T01:26:09.492Z,95.40
2023-04-04T01:28:38.191Z,94.91
2023-04-04T01:31:15.708Z,96.38
2023-04-04T01:33:49.429Z,95.13
2023-04-04T01:36:27.006Z,93.17
2023-04-04T01:39:06.444Z,92.88
2023-04-04T01:41:36.753Z,93.50
2023-04-04T01:44:06.480Z,93.73
2023-04-04T01:46:37.228Z,93.54
2023-04-04T01:49:06.058Z,92.32
2023-04-04T01:51:36.789Z,92.00
2023-04-04T01:54:06.251Z,92.49
2023-04-04T01:56:36.432Z,91.74
2023-04-04T01:59:04.902Z,92.67
2023-04-04T02:01:33.379Z,92.70
2023-04-04T02:04:02.486Z,92.79
2023-04-04T02:06:31.270Z,92.96
2023-04-04T02:09:00.033Z,94.05
2023-04-04T02:11:28.497Z,94.98
2023-04-04T02:13:58.631Z,94.23
2023-04-04T02:16:28.949Z,93.51
2023-04-04T02:18:57.877Z,94.43
2023-04-04T02:21:27.235Z,93.38
2023-04-04T02:23:55.891Z,93.01
2023-04-04T02:26:24.297Z,92.83
2023-04-04T02:28:53.014Z,92.26
2023-04-04T02:31:23.054Z,91.84
2023-04-04T02:33:54.196Z,92.34
2023-04-04T02:36:23.476Z,93.02
2023-04-04T02:38:54.234Z,92.58
2023-04-04T02:41:25.834Z,94.15
2023-04-04T02:43:54.363Z,94.21
2023-04-04T02:46:24.202Z,94.03
2023-04-04T02:48:59.273Z,94.57
2023-04-04T02:51:27.872Z,93.65
2023-04-04T02:53:59.150Z,93.10
2023-04-04T02:56:33.931Z,93.68
2023-04-04T02:59:03.707Z,93.31
2023-04-04T03:01:33.619Z,94.05
2023-04-04T03:04:05.786Z,94.18
2023-04-04T03:06:35.677Z,95.44
2023-04-04T03:09:05.573Z,93.00
2023-04-04T03:11:34.115Z,93.09
2023-04-04T03:14:03.156Z,93.12
2023-04-04T03:16:38.613Z,93.73
2023-04-04T03:19:08.170Z,93.38
2023-04-04T03:21:36.749Z,93.90
2023-04-04T03:24:05.914Z,93.87
2023-04-04T03:26:34.270Z,93.86
2023-04-04T03:29:04.628Z,93.32
2023-04-04T03:31:33.054Z,92.72
2023-04-04T03:34:04.494Z,93.81
2023-04-04T03:36:32.895Z,95.57
2023-04-04T03:39:01.906Z,95.47
2023-04-04T03:41:31.106Z,95.89
2023-04-04T03:43:59.469Z,95.93
2023-04-04T03:46:29.468Z,96.37
2023-04-04T03:48:58.162Z,95.81
2023-04-04T03:51:28.578Z,95.62
2023-04-04T03:53:57.819Z,95.65
2023-04-04T03:56:26.554Z,95.74
2023-04-04T03:58:56.695Z,94.23
2023-04-04T04:01:25.559Z,95.36
2023-04-04T04:03:54.337Z,95.01
2023-04-04T04:06:22.737Z,95.80
2023-04-04T04:08:52.831Z,95.50
2023-04-04T04:11:21.377Z,96.31
2023-04-04T04:13:50.169Z,96.05
2023-04-04T04:16:19.482Z,96.10
2023-04-04T04:18:49.846Z,97.44
2023-04-04T04:21:26.894Z,96.74
2023-04-04T04:23:56.770Z,96.87
2023-04-04T04:26:25.143Z,97.72
2023-04-04T04:28:54.474Z,98.56
2023-04-04T04:31:29.660Z,98.42
2023-04-04T04:33:58.832Z,97.78
2023-04-04T04:36:31.226Z,97.59
2023-04-04T04:39:16.796Z,97.40
2023-04-04T04:41:58.609Z,97.30
2023-04-04T04:44:27.697Z,97.70
2023-04-04T04:46:57.887Z,98.68
2023-04-04T04:49:27.441Z,97.72
2023-04-04T04:51:56.821Z,97.31
2023-04-04T04:54:26.700Z,97.63
2023-04-04T04:56:56.774Z,98.61
2023-04-04T04:59:26.069Z,99.80
2023-04-04T05:01:55.343Z,100.00
2023-04-04T05:04:25.379Z,100.00
2023-04-04T05:07:02.095Z,100.00
2023-04-04T05:09:32.376Z,100.00
2023-04-04T05:12:01.030Z,100.00
2023-04-04T05:14:39.005Z,100.00
2023-04-04T05:17:08.311Z,100.00
2023-04-04T05:19:37.632Z,100.00
2023-04-04T05:22:08.735Z,100.00
2023-04-04T05:24:46.369Z,100.00
2023-04-04T05:27:18.414Z,100.00
2023-04-04T05:29:53.463Z,100.00
2023-04-04T05:32:23.632Z,100.00
2023-04-04T05:35:02.477Z,100.00
2023-04-04T05:37:35.537Z,99.17
2023-04-04T05:40:08.200Z,98.53
2023-04-04T05:42:37.440Z,97.21
2023-04-04T05:45:09.064Z,96.62
2023-04-04T05:47:37.937Z,95.47
2023-04-04T05:50:07.475Z,94.34
2023-04-04T05:52:38.501Z,90.87
2023-04-04T05:55:12.907Z,91.80
2023-04-04T05:57:50.231Z,85.65
2023-04-04T06:00:24.462Z,83.56
2023-04-04T06:03:03.713Z,83.28
2023-04-04T06:05:32.638Z,81.88
2023-04-04T06:08:01.456Z,79.52
2023-04-04T06:10:32.134Z,79.93
2023-04-04T06:13:01.292Z,76.49
2023-04-04T06:15:30.844Z,76.21
2023-04-04T06:17:59.216Z,75.05
2023-04-04T06:20:30.571Z,72.02
2023-04-04T06:23:01.054Z,72.16
2023-04-04T06:25:32.230Z,70.86
2023-04-04T06:28:01.564Z,74.58
2023-04-04T06:30:30.321Z,73.22
2023-04-04T06:32:59.380Z,72.11
2023-04-04T06:35:30.061Z,67.95
2023-04-04T06:38:04.261Z,67.00
2023-04-04T06:40:34.353Z,67.90
2023-04-04T06:43:03.400Z,66.68
2023-04-04T06:45:39.994Z,67.63
2023-04-04T06:48:09.084Z,63.50
2023-04-04T06:50:38.872Z,64.88
2023-04-04T06:53:12.301Z,64.73
2023-04-04T06:55:42.620Z,69.23
2023-04-04T06:58:11.249Z,63.21
2023-04-04T07:00:39.767Z,67.10
2023-04-04T07:03:08.371Z,64.28
2023-04-04T07:05:40.284Z,60.52
2023-04-04T07:08:08.680Z,59.65
2023-04-04T07:10:38.077Z,62.70
2023-04-04T07:13:09.789Z,63.99
2023-04-04T07:15:38.332Z,62.63
2023-04-04T07:18:07.997Z,61.31
2023-04-04T07:20:36.462Z,61.10
2023-04-04T07:23:04.777Z,63.08
2023-04-04T07:25:33.393Z,60.68
2023-04-04T07:28:11.592Z,60.94
2023-04-04T07:30:43.358Z,57.70
2023-04-04T07:33:12.233Z,58.89
2023-04-04T07:35:40.706Z,59.77
2023-04-04T07:38:09.563Z,58.80
2023-04-04T07:40:38.156Z,56.95
2023-04-04T07:43:07.380Z,55.66
2023-04-04T07:45:36.366Z,55.60
2023-04-04T07:48:06.811Z,58.37
2023-04-04T07:50:35.132Z,52.04
2023-04-04T07:53:03.494Z,55.65
2023-04-04T07:55:31.832Z,55.43
2023-04-04T07:58:00.157Z,52.46
2023-04-04T08:00:28.562Z,55.81
2023-04-04T08:02:59.472Z,54.04
2023-04-04T08:05:29.770Z,52.89
2023-04-04T08:07:58.877Z,56.50
2023-04-04T08:10:27.859Z,54.02
2023-04-04T08:12:56.211Z,57.20
2023-04-04T08:15:25.043Z,50.58
2023-04-04T08:17:53.655Z,56.21
2023-04-04T08:20:22.532Z,57.89
2023-04-04T08:22:52.532Z,59.35
2023-04-04T08:25:21.036Z,60.40
2023-04-04T08:27:49.460Z,58.58
2023-04-04T08:30:18.148Z,57.71
2023-04-04T08:32:46.808Z,57.57
2023-04-04T08:35:15.916Z,59.18
2023-04-04T08:37:46.915Z,56.80
2023-04-04T08:40:17.620Z,60.12
2023-04-04T08:42:48.288Z,60.02
2023-04-04T08:45:20.214Z,53.85
2023-04-04T08:47:51.629Z,51.09
2023-04-04T08:50:21.592Z,52.63
2023-04-04T08:52:50.956Z,57.41
2023-04-04T08:55:21.202Z,56.63
2023-04-04T08:57:49.614Z,58.54
2023-04-04T09:00:21.508Z,56.79
2023-04-04T09:02:58.886Z,55.78
2023-04-04T09:05:28.252Z,58.40
2023-04-04T09:07:57.984Z,55.65
2023-04-04T09:10:29.487Z,63.01
2023-04-04T09:13:12.611Z,60.24
2023-04-04T09:15:49.557Z,62.49
2023-04-04T09:18:19.082Z,60.57
2023-04-04T09:20:48.886Z,59.99
2023-04-04T09:23:20.632Z,57.25
2023-04-04T09:28:25.518Z,55.28
2023-04-04T09:30:54.702Z,58.43
2023-04-04T09:33:25.694Z,56.39
2023-04-04T09:35:59.401Z,56.87
2023-04-04T09:38:30.948Z,47.60
2023-04-04T09:41:01.132Z,48.20
2023-04-04T09:43:32.700Z,46.89
2023-04-04T09:46:02.372Z,45.72
2023-04-04T09:48:34.743Z,50.78
2023-04-04T09:51:07.052Z,52.41
2023-04-04T09:53:42.173Z,54.00
2023-04-04T09:56:12.851Z,54.30
2023-04-04T09:58:52.483Z,53.20
2023-04-04T10:01:30.926Z,47.20
2023-04-04T10:03:59.847Z,44.32
2023-04-04T10:06:28.762Z,44.69
2023-04-04T10:08:58.486Z,41.67
2023-04-04T10:11:34.434Z,41.95
2023-04-04T10:14:04.744Z,44.93
2023-04-04T10:16:37.963Z,47.36
2023-04-04T10:19:08.842Z,43.11
2023-04-04T10:21:37.741Z,43.20
2023-04-04T10:24:10.082Z,42.67
2023-04-04T10:26:40.009Z,40.95
2023-04-04T10:29:08.455Z,38.88
2023-04-04T10:31:43.704Z,38.70
2023-04-04T10:34:21.800Z,41.73
2023-04-04T10:36:55.008Z,44.37
2023-04-04T10:39:29.661Z,45.42
2023-04-04T10:42:01.937Z,49.89
2023-04-04T10:44:34.293Z,46.85
2023-04-04T10:47:15.652Z,42.58
2023-04-04T10:49:46.784Z,43.30
2023-04-04T10:52:18.664Z,42.58
2023-04-04T10:54:48.586Z,45.66
2023-04-04T10:57:19.259Z,51.30
2023-04-04T11:00:05.441Z,46.35
2023-04-04T11:02:54.596Z,41.12
2023-04-04T11:05:26.681Z,42.25
2023-04-04T11:10:34.610Z,46.85
2023-04-04T11:13:14.165Z,46.09
2023-04-04T11:15:57.908Z,46.08
2023-04-04T11:18:47.883Z,42.85
2023-04-04T11:21:18.434Z,42.64
2023-04-04T11:24:16.773Z,50.33
2023-04-04T11:26:47.151Z,48.10
2023-04-04T11:29:52.972Z,41.36
2023-04-04T11:32:52.979Z,41.98
2023-04-04T11:35:29.242Z,42.84
2023-04-04T11:38:03.716Z,50.42
2023-04-04T11:40:41.272Z,42.53
2023-04-04T11:43:13.585Z,41.75
2023-04-04T11:45:47.907Z,42.64
2023-04-04T11:48:19.905Z,43.42
2023-04-04T11:50:53.270Z,45.60
2023-04-04T11:53:22.196Z,38.42
2023-04-04T11:55:54.847Z,46.49
2023-04-04T11:58:24.226Z,45.07
2023-04-04T12:00:54.093Z,49.61
2023-04-04T12:03:23.802Z,52.30
2023-04-04T12:05:52.926Z,50.54
2023-04-04T12:08:23.955Z,49.73
2023-04-04T12:10:53.549Z,47.74
2023-04-04T12:13:21.885Z,44.37
2023-04-04T12:15:51.199Z,42.26
2023-04-04T12:18:24.393Z,37.29
2023-04-04T12:20:53.460Z,39.51
2023-04-04T12:23:23.856Z,40.48
2023-04-04T12:25:54.966Z,40.07
2023-04-04T12:28:24.299Z,36.03
2023-04-04T12:30:53.466Z,39.77
2023-04-04T12:33:24.531Z,37.87
2023-04-04T12:35:54.896Z,43.37
2023-04-04T12:38:23.600Z,35.94
2023-04-04T12:40:53.104Z,36.44
2023-04-04T12:43:21.876Z,36.01
2023-04-04T12:45:52.639Z,41.19
2023-04-04T12:48:22.848Z,44.77
2023-04-04T12:50:58.346Z,46.83
2023-04-04T12:53:30.200Z,44.41
2023-04-04T12:56:03.694Z,43.93
2023-04-04T12:58:35.946Z,43.00
2023-04-04T13:01:08.320Z,44.22
2023-04-04T13:03:37.968Z,48.40
2023-04-04T13:06:15.297Z,45.59
2023-04-04T13:08:54.302Z,47.47
2023-04-04T13:11:23.753Z,47.92
2023-04-04T13:14:03.392Z,46.16
2023-04-04T13:16:35.623Z,47.89
2023-04-04T13:19:05.197Z,41.24
2023-04-04T13:21:36.304Z,41.65
2023-04-04T13:24:05.140Z,38.45
2023-04-04T13:26:33.438Z,36.82
2023-04-04T13:29:01.857Z,37.25
2023-04-04T13:31:30.241Z,38.94
2023-04-04T13:33:58.511Z,46.10
2023-04-04T13:36:28.401Z,43.52
2023-04-04T13:38:58.276Z,45.80
2023-04-04T13:41:26.707Z,44.82
2023-04-04T13:43:56.600Z,48.07
2023-04-04T13:46:25.117Z,53.91
2023-04-04T13:48:53.546Z,46.26
2023-04-04T13:51:24.443Z,46.76
2023-04-04T13:53:52.804Z,47.90
2023-04-04T13:56:24.190Z,45.95
2023-04-04T13:58:54.019Z,46.02
2023-04-04T14:01:23.589Z,40.74
2023-04-04T14:03:52.716Z,41.27
2023-04-04T14:06:21.179Z,39.79
2023-04-04T14:08:49.808Z,44.35
2023-04-04T14:11:18.246Z,45.52
2023-04-04T14:13:48.092Z,38.27
2023-04-04T14:16:16.920Z,36.42
2023-04-04T14:18:45.569Z,34.96
2023-04-04T14:21:13.937Z,39.01
2023-04-04T14:23:42.232Z,40.05
2023-04-04T14:26:10.529Z,43.45
2023-04-04T14:28:39.615Z,41.31
2023-04-04T14:31:09.366Z,40.50
2023-04-04T14:33:37.904Z,40.05
2023-04-04T14:36:06.627Z,43.00
2023-04-04T14:38:34.905Z,42.84
2023-04-04T14:41:03.314Z,42.16
2023-04-04T14:43:31.605Z,42.98
2023-04-04T14:46:00.180Z,42.02
2023-04-04T14:48:29.888Z,42.34
2023-04-04T14:50:58.363Z,42.82
2023-04-04T14:53:27.542Z,41.55
2023-04-04T14:55:55.998Z,36.79
2023-04-04T14:58:24.296Z,34.35
2023-04-04T15:00:52.878Z,35.01
2023-04-04T15:03:21.535Z,37.10
2023-04-04T15:05:51.840Z,39.22
2023-04-04T15:08:20.287Z,42.40
2023-04-04T15:10:48.694Z,43.80
2023-04-04T15:13:17.328Z,42.26
2023-04-04T15:15:46.228Z,43.39
2023-04-04T15:18:14.598Z,43.61
2023-04-04T15:20:43.639Z,45.36
2023-04-04T15:23:14.021Z,44.72
2023-04-04T15:25:42.611Z,40.39
2023-04-04T15:28:11.207Z,38.21
2023-04-04T15:30:39.872Z,34.63
2023-04-04T15:33:08.323Z,35.21
2023-04-04T15:35:37.011Z,32.44
2023-04-04T15:38:05.435Z,32.99
2023-04-04T15:40:35.167Z,34.25
2023-04-04T15:43:03.510Z,34.50
2023-04-04T15:45:32.873Z,32.13
2023-04-04T15:48:01.394Z,33.61
2023-04-04T15:50:30.155Z,38.99
2023-04-04T15:52:58.763Z,40.56
2023-04-04T15:55:29.441Z,41.78
2023-04-04T15:57:59.207Z,44.23
2023-04-04T16:00:29.349Z,46.20
2023-04-04T16:02:59.249Z,44.55
2023-04-04T16:05:28.429Z,43.81
2023-04-04T16:07:56.765Z,43.44
2023-04-04T16:10:25.665Z,43.44
2023-04-04T16:12:54.077Z,40.31
2023-04-04T16:15:23.811Z,43.99
2023-04-04T16:17:53.805Z,42.14
2023-04-04T16:20:22.422Z,41.67
2023-04-04T16:22:50.878Z,43.21
2023-04-04T16:25:19.804Z,42.48
2023-04-04T16:27:48.524Z,41.72
2023-04-04T16:30:17.314Z,42.74
2023-04-04T16:32:47.795Z,42.69
2023-04-04T16:35:16.472Z,45.11
2023-04-04T16:37:44.825Z,44.77
2023-04-04T16:40:15.450Z,47.18
2023-04-04T16:42:44.224Z,47.35
2023-04-04T16:45:16.721Z,49.41
2023-04-04T16:47:46.377Z,48.13
2023-04-04T16:50:14.787Z,51.86
2023-04-04T16:52:43.405Z,50.71
2023-04-04T16:55:11.932Z,50.08
2023-04-04T16:57:41.501Z,50.09
2023-04-04T17:00:11.241Z,51.73
2023-04-04T17:02:45.357Z,52.09
2023-04-04T17:05:16.225Z,52.62
2023-04-04T17:07:45.028Z,52.55
2023-04-04T17:10:16.241Z,53.35
2023-04-04T17:12:44.971Z,54.07
2023-04-04T17:15:14.532Z,52.73
2023-04-04T17:17:46.726Z,53.38
2023-04-04T17:20:19.214Z,54.01
2023-04-04T17:22:49.754Z,53.97
2023-04-04T17:25:20.730Z,54.54
2023-04-04T17:27:49.191Z,54.71
2023-04-04T17:30:17.655Z,55.69
2023-04-04T17:32:47.349Z,56.79
2023-04-04T17:35:17.609Z,56.64
2023-04-04T17:37:45.935Z,58.64
2023-04-04T17:40:15.249Z,58.99
2023-04-04T17:42:43.613Z,61.41
2023-04-04T17:45:12.613Z,60.41
2023-04-04T17:47:41.143Z,61.84
2023-04-04T17:50:10.835Z,66.81
2023-04-04T17:52:40.873Z,73.76
2023-04-04T17:55:11.360Z,70.38
2023-04-04T17:57:39.899Z,64.90
2023-04-04T18:00:10.977Z,64.13
2023-04-04T18:02:39.367Z,66.14
2023-04-04T18:05:10.161Z,79.17
2023-04-04T18:07:39.957Z,86.31
2023-04-04T18:10:09.954Z,90.34
2023-04-04T18:12:39.230Z,90.69
2023-04-04T18:15:09.201Z,90.35
2023-04-04T18:17:38.398Z,91.80
2023-04-04T18:20:10.565Z,93.70
2023-04-04T18:22:43.061Z,95.89
2023-04-04T18:25:11.927Z,97.53
2023-04-04T18:27:40.409Z,99.29
2023-04-04T18:30:10.616Z,98.08
2023-04-04T18:32:39.576Z,98.28
2023-04-04T18:35:08.997Z,99.10
2023-04-04T18:37:37.360Z,95.96
2023-04-04T18:40:09.235Z,94.57
2023-04-04T18:42:37.823Z,96.19
2023-04-04T18:45:09.904Z,96.30
2023-04-04T18:47:39.266Z,95.17
2023-04-04T18:50:09.606Z,97.25
2023-04-04T18:52:37.985Z,96.71
2023-04-04T18:55:09.336Z,95.51
2023-04-04T18:57:38.317Z,94.84
2023-04-04T19:00:09.746Z,95.16
2023-04-04T19:02:38.438Z,95.53
2023-04-04T19:05:09.185Z,92.80
2023-04-04T19:07:39.110Z,92.39
2023-04-04T19:10:10.582Z,93.10
2023-04-04T19:12:38.905Z,92.65
2023-04-04T19:15:08.702Z,92.72
2023-04-04T19:17:37.456Z,93.63
2023-04-04T19:20:07.378Z,93.26
2023-04-04T19:22:36.188Z,93.09
2023-04-04T19:25:05.142Z,92.09
2023-04-04T19:27:34.945Z,91.59
2023-04-04T19:30:12.513Z,91.73
2023-04-04T19:32:41.170Z,90.98
2023-04-04T19:35:24.151Z,90.29
2023-04-04T19:37:52.484Z,89.92
2023-04-04T19:40:49.991Z,90.80
2023-04-04T19:43:23.104Z,90.20
2023-04-04T19:45:53.546Z,89.98
2023-04-04T19:48:46.145Z,89.34
2023-04-04T19:51:49.594Z,89.13
2023-04-04T19:54:24.965Z,89.13
2023-04-04T19:57:01.222Z,90.21
2023-04-04T20:00:01.933Z,89.78
2023-04-04T20:02:57.104Z,89.28
2023-04-04T20:06:06.107Z,90.10
2023-04-04T20:08:44.381Z,90.35
2023-04-04T20:11:13.961Z,89.31
2023-04-04T20:13:43.139Z,88.76
2023-04-04T20:16:15.674Z,88.37
2023-04-04T20:18:46.157Z,87.58
2023-04-04T20:21:17.826Z,87.76
2023-04-04T20:23:52.480Z,87.70
2023-04-04T20:26:52.463Z,87.68
2023-04-04T20:29:23.192Z,87.80
2023-04-04T20:31:55.482Z,88.22
2023-04-04T20:34:50.292Z,88.52
2023-04-04T20:37:22.793Z,88.94
2023-04-04T20:39:55.780Z,88.70
2023-04-04T20:42:41.884Z,88.22
2023-04-04T20:45:46.577Z,88.02
2023-04-04T20:48:38.716Z,87.86
2023-04-04T20:51:28.705Z,87.29
2023-04-04T20:54:00.052Z,86.82
2023-04-04T20:56:52.439Z,86.81
2023-04-04T20:59:34.058Z,87.04
2023-04-04T21:02:16.907Z,86.82
2023-04-04T21:04:49.742Z,87.86
2023-04-04T21:07:41.377Z,88.46
2023-04-04T21:10:24.659Z,92.16
2023-04-04T21:12:53.898Z,92.90
2023-04-04T21:15:28.631Z,93.59
2023-04-04T21:17:59.973Z,94.99
2023-04-04T21:21:18.632Z,95.12
2023-04-04T21:23:55.598Z,95.10
2023-04-04T21:26:35.758Z,94.91
2023-04-04T21:29:07.762Z,93.49
2023-04-04T21:31:39.573Z,92.10
2023-04-04T21:34:15.166Z,92.81
2023-04-04T21:36:46.267Z,92.54
2023-04-04T21:39:22.152Z,94.09
2023-04-04T21:41:54.771Z,95.21
2023-04-04T21:44:24.640Z,95.02
2023-04-04T21:46:54.406Z,95.74
2023-04-04T21:49:23.088Z,98.25
2023-04-04T21:51:52.984Z,96.13
2023-04-04T21:54:21.661Z,98.82
2023-04-04T21:56:50.213Z,97.59
2023-04-04T21:59:18.659Z,99.03
2023-04-04T22:01:46.903Z,97.85
2023-04-04T22:04:15.383Z,97.04
2023-04-04T22:06:43.963Z,99.28
2023-04-04T22:09:16.120Z,98.06
2023-04-04T22:11:45.306Z,97.03
2023-04-04T22:14:17.647Z,97.50
2023-04-04T22:16:46.872Z,98.65
2023-04-04T22:19:15.318Z,98.56
2023-04-04T22:21:48.248Z,98.95
2023-04-04T22:24:18.826Z,100.00
2023-04-04T22:26:47.467Z,98.80
2023-04-04T22:29:16.047Z,97.88
2023-04-04T22:31:44.972Z,96.82
2023-04-04T22:34:15.147Z,96.82
2023-04-04T22:36:44.599Z,96.39
2023-04-04T22:39:16.108Z,97.49
2023-04-04T22:41:46.186Z,97.47
2023-04-04T22:44:14.536Z,99.81
2023-04-04T22:46:43.018Z,98.66
2023-04-04T22:49:11.321Z,100.00
2023-04-04T22:51:45.780Z,100.00
2023-04-04T22:54:15.650Z,100.00
2023-04-04T22:56:46.074Z,99.83
2023-04-04T22:59:14.931Z,97.10
2023-04-04T23:01:43.342Z,98.57
2023-04-04T23:04:11.920Z,98.16
2023-04-04T23:06:40.593Z,98.02
2023-04-04T23:09:09.315Z,97.53
2023-04-04T23:11:38.850Z,97.13
2023-04-04T23:14:09.945Z,97.25
2023-04-04T23:16:40.107Z,97.81
2023-04-04T23:19:08.545Z,97.59
2023-04-04T23:21:37.509Z,97.17
2023-04-04T23:24:07.785Z,95.61
2023-04-04T23:26:36.333Z,94.80
2023-04-04T23:29:05.710Z,94.68
2023-04-04T23:31:36.402Z,94.41
2023-04-04T23:34:05.099Z,94.35
2023-04-04T23:36:34.423Z,93.77
2023-04-04T23:39:03.454Z,93.54
2023-04-04T23:41:32.237Z,95.02
2023-04-04T23:44:01.029Z,95.59
2023-04-04T23:46:34.185Z,96.73
2023-04-04T23:49:04.109Z,96.13
2023-04-04T23:51:38.303Z,95.70
2023-04-04T23:54:07.575Z,96.88
2023-04-04T23:56:37.175Z,97.74
2023-04-04T23:59:06.537Z,96.56
